sensor_id;sensor_type;location;lat;lon;timestamp;P1;durP1;ratioP1;P2;durP2;ratioP2
68379;SDS011;57711;53.196;19.638;2023-01-08T00:01:04;57.40;;;29.10;;
68379;SDS011;57711;53.196;19.638;2023-01-08T00:03:45;66.60;;;33.10;;
68379;SDS011;57711;53.196;19.638;2023-01-08T00:06:14;68.50;;;35.50;;
68379;SDS011;57711;53.196;19.638;2023-01-08T00:08:44;70.10;;;31.70;;
68379;SDS011;57711;53.196;19.638;2023-01-08T00:11:11;59.40;;;29.30;;
68379;SDS011;57711;53.196;19.638;2023-01-08T00:13:39;60.40;;;31.10;;
68379;SDS011;57711;53.196;19.638;2023-01-08T00:16:08;67.80;;;29.50;;
68379;SDS011;57711;53.196;19.638;2023-01-08T00:18:38;65.20;;;30.90;;
68379;SDS011;57711;53.196;19.638;2023-01-08T00:21:06;70.80;;;33.30;;
68379;SDS011;57711;53.196;19.638;2023-01-08T00:23:34;60.50;;;27.80;;
68379;SDS011;57711;53.196;19.638;2023-01-08T00:26:03;58.00;;;29.30;;
68379;SDS011;57711;53.196;19.638;2023-01-08T00:28:32;65.10;;;31.30;;
68379;SDS011;57711;53.196;19.638;2023-01-08T00:31:01;60.70;;;30.40;;
68379;SDS011;57711;53.196;19.638;2023-01-08T00:33:30;36.00;;;19.50;;
68379;SDS011;57711;53.196;19.638;2023-01-08T00:35:59;64.50;;;32.40;;
68379;SDS011;57711;53.196;19.638;2023-01-08T00:38:26;67.40;;;33.10;;
68379;SDS011;57711;53.196;19.638;2023-01-08T00:40:55;63.10;;;33.30;;
68379;SDS011;57711;53.196;19.638;2023-01-08T00:43:22;69.50;;;36.80;;
68379;SDS011;57711;53.196;19.638;2023-01-08T00:45:49;73.20;;;33.40;;
68379;SDS011;57711;53.196;19.638;2023-01-08T00:48:20;56.10;;;29.10;;
68379;SDS011;57711;53.196;19.638;2023-01-08T00:50:50;65.70;;;33.00;;
68379;SDS011;57711;53.196;19.638;2023-01-08T00:53:19;64.30;;;31.10;;
68379;SDS011;57711;53.196;19.638;2023-01-08T00:55:47;64.20;;;30.80;;
68379;SDS011;57711;53.196;19.638;2023-01-08T00:58:15;52.00;;;22.70;;
68379;SDS011;57711;53.196;19.638;2023-01-08T01:00:42;63.30;;;29.90;;
68379;SDS011;57711;53.196;19.638;2023-01-08T01:03:09;54.90;;;28.20;;
68379;SDS011;57711;53.196;19.638;2023-01-08T01:05:36;62.40;;;30.80;;
68379;SDS011;57711;53.196;19.638;2023-01-08T01:08:04;69.00;;;33.90;;
68379;SDS011;57711;53.196;19.638;2023-01-08T01:10:31;68.40;;;33.50;;
68379;SDS011;57711;53.196;19.638;2023-01-08T01:12:58;64.10;;;30.80;;
68379;SDS011;57711;53.196;19.638;2023-01-08T01:15:25;72.60;;;33.30;;
68379;SDS011;57711;53.196;19.638;2023-01-08T01:17:52;63.70;;;28.50;;
68379;SDS011;57711;53.196;19.638;2023-01-08T01:20:19;57.70;;;27.80;;
68379;SDS011;57711;53.196;19.638;2023-01-08T01:22:47;67.90;;;30.10;;
68379;SDS011;57711;53.196;19.638;2023-01-08T01:25:14;54.80;;;26.40;;
68379;SDS011;57711;53.196;19.638;2023-01-08T01:27:42;70.80;;;33.80;;
68379;SDS011;57711;53.196;19.638;2023-01-08T01:30:09;76.70;;;32.90;;
68379;SDS011;57711;53.196;19.638;2023-01-08T01:32:37;73.80;;;31.20;;
68379;SDS011;57711;53.196;19.638;2023-01-08T01:35:04;74.80;;;33.50;;
68379;SDS011;57711;53.196;19.638;2023-01-08T01:37:31;70.10;;;32.30;;
68379;SDS011;57711;53.196;19.638;2023-01-08T01:39:59;69.50;;;31.10;;
68379;SDS011;57711;53.196;19.638;2023-01-08T01:42:26;77.50;;;32.50;;
68379;SDS011;57711;53.196;19.638;2023-01-08T01:45:16;69.40;;;30.70;;
68379;SDS011;57711;53.196;19.638;2023-01-08T01:48:02;72.60;;;33.10;;
68379;SDS011;57711;53.196;19.638;2023-01-08T01:50:37;68.10;;;32.00;;
68379;SDS011;57711;53.196;19.638;2023-01-08T01:53:17;79.50;;;37.70;;
68379;SDS011;57711;53.196;19.638;2023-01-08T01:55:50;75.60;;;35.00;;
68379;SDS011;57711;53.196;19.638;2023-01-08T01:58:21;66.30;;;32.20;;
68379;SDS011;57711;53.196;19.638;2023-01-08T02:00:51;61.60;;;26.70;;
68379;SDS011;57711;53.196;19.638;2023-01-08T02:03:21;77.80;;;33.20;;
68379;SDS011;57711;53.196;19.638;2023-01-08T02:05:55;74.80;;;34.50;;
68379;SDS011;57711;53.196;19.638;2023-01-08T02:08:35;75.90;;;35.10;;
68379;SDS011;57711;53.196;19.638;2023-01-08T02:11:25;81.10;;;37.70;;
68379;SDS011;57711;53.196;19.638;2023-01-08T02:14:11;84.90;;;39.70;;
68379;SDS011;57711;53.196;19.638;2023-01-08T02:16:54;86.60;;;41.60;;
68379;SDS011;57711;53.196;19.638;2023-01-08T02:19:48;81.30;;;39.00;;
68379;SDS011;57711;53.196;19.638;2023-01-08T02:22:27;66.70;;;31.30;;
68379;SDS011;57711;53.196;19.638;2023-01-08T02:27:40;67.00;;;30.70;;
68379;SDS011;57711;53.196;19.638;2023-01-08T02:30:10;72.20;;;33.10;;
68379;SDS011;57711;53.196;19.638;2023-01-08T02:32:38;60.80;;;30.00;;
68379;SDS011;57711;53.196;19.638;2023-01-08T02:35:08;65.90;;;33.80;;
68379;SDS011;57711;53.196;19.638;2023-01-08T02:37:36;62.90;;;31.30;;
68379;SDS011;57711;53.196;19.638;2023-01-08T02:40:06;73.30;;;36.30;;
68379;SDS011;57711;53.196;19.638;2023-01-08T02:42:56;70.80;;;36.90;;
68379;SDS011;57711;53.196;19.638;2023-01-08T02:53:38;67.00;;;37.20;;
68379;SDS011;57711;53.196;19.638;2023-01-08T02:56:13;62.20;;;34.10;;
68379;SDS011;57711;53.196;19.638;2023-01-08T02:58:44;52.30;;;30.10;;
68379;SDS011;57711;53.196;19.638;2023-01-08T03:01:14;60.80;;;33.70;;
68379;SDS011;57711;53.196;19.638;2023-01-08T03:03:45;61.10;;;30.80;;
68379;SDS011;57711;53.196;19.638;2023-01-08T03:06:17;55.00;;;30.30;;
68379;SDS011;57711;53.196;19.638;2023-01-08T03:08:49;55.30;;;30.30;;
68379;SDS011;57711;53.196;19.638;2023-01-08T03:11:19;54.40;;;29.80;;
68379;SDS011;57711;53.196;19.638;2023-01-08T03:14:02;50.60;;;28.50;;
68379;SDS011;57711;53.196;19.638;2023-01-08T03:16:40;62.00;;;33.00;;
68379;SDS011;57711;53.196;19.638;2023-01-08T03:19:22;61.20;;;33.40;;
68379;SDS011;57711;53.196;19.638;2023-01-08T03:21:58;67.20;;;34.20;;
68379;SDS011;57711;53.196;19.638;2023-01-08T03:24:30;49.50;;;27.20;;
68379;SDS011;57711;53.196;19.638;2023-01-08T03:27:01;62.60;;;34.10;;
68379;SDS011;57711;53.196;19.638;2023-01-08T03:29:31;60.30;;;33.40;;
68379;SDS011;57711;53.196;19.638;2023-01-08T03:32:02;59.10;;;33.10;;
68379;SDS011;57711;53.196;19.638;2023-01-08T03:34:34;57.80;;;33.10;;
68379;SDS011;57711;53.196;19.638;2023-01-08T03:37:06;56.40;;;31.50;;
68379;SDS011;57711;53.196;19.638;2023-01-08T03:39:46;56.70;;;29.30;;
68379;SDS011;57711;53.196;19.638;2023-01-08T03:42:21;59.70;;;33.00;;
68379;SDS011;57711;53.196;19.638;2023-01-08T03:44:50;61.70;;;33.80;;
68379;SDS011;57711;53.196;19.638;2023-01-08T03:47:18;50.60;;;29.40;;
68379;SDS011;57711;53.196;19.638;2023-01-08T03:49:48;56.20;;;31.80;;
68379;SDS011;57711;53.196;19.638;2023-01-08T03:52:24;56.90;;;33.20;;
68379;SDS011;57711;53.196;19.638;2023-01-08T03:54:53;52.60;;;30.30;;
68379;SDS011;57711;53.196;19.638;2023-01-08T03:57:20;56.50;;;29.60;;
68379;SDS011;57711;53.196;19.638;2023-01-08T03:59:48;51.80;;;26.80;;
68379;SDS011;57711;53.196;19.638;2023-01-08T04:02:15;67.80;;;36.20;;
68379;SDS011;57711;53.196;19.638;2023-01-08T04:04:42;55.80;;;31.80;;
68379;SDS011;57711;53.196;19.638;2023-01-08T04:07:10;62.10;;;36.00;;
68379;SDS011;57711;53.196;19.638;2023-01-08T04:09:38;58.50;;;34.50;;
68379;SDS011;57711;53.196;19.638;2023-01-08T04:12:05;52.90;;;29.30;;
68379;SDS011;57711;53.196;19.638;2023-01-08T04:14:32;41.60;;;21.30;;
68379;SDS011;57711;53.196;19.638;2023-01-08T04:17:00;53.10;;;28.20;;
68379;SDS011;57711;53.196;19.638;2023-01-08T04:19:27;57.70;;;32.20;;
68379;SDS011;57711;53.196;19.638;2023-01-08T04:21:54;68.80;;;36.40;;
68379;SDS011;57711;53.196;19.638;2023-01-08T04:24:21;61.70;;;33.60;;
68379;SDS011;57711;53.196;19.638;2023-01-08T04:26:48;56.00;;;30.00;;
68379;SDS011;57711;53.196;19.638;2023-01-08T04:29:16;49.80;;;26.40;;
68379;SDS011;57711;53.196;19.638;2023-01-08T04:31:43;52.70;;;27.90;;
68379;SDS011;57711;53.196;19.638;2023-01-08T04:34:10;55.90;;;29.00;;
68379;SDS011;57711;53.196;19.638;2023-01-08T04:36:37;54.30;;;29.00;;
68379;SDS011;57711;53.196;19.638;2023-01-08T04:39:06;44.70;;;25.90;;
68379;SDS011;57711;53.196;19.638;2023-01-08T04:41:33;41.60;;;22.20;;
68379;SDS011;57711;53.196;19.638;2023-01-08T04:44:01;48.50;;;26.00;;
68379;SDS011;57711;53.196;19.638;2023-01-08T04:46:28;49.20;;;28.10;;
68379;SDS011;57711;53.196;19.638;2023-01-08T04:48:55;54.10;;;27.50;;
68379;SDS011;57711;53.196;19.638;2023-01-08T04:51:22;37.60;;;22.60;;
68379;SDS011;57711;53.196;19.638;2023-01-08T04:53:52;34.50;;;20.80;;
68379;SDS011;57711;53.196;19.638;2023-01-08T04:56:19;36.00;;;21.00;;
68379;SDS011;57711;53.196;19.638;2023-01-08T04:58:46;43.00;;;24.60;;
68379;SDS011;57711;53.196;19.638;2023-01-08T05:01:17;40.50;;;24.30;;
68379;SDS011;57711;53.196;19.638;2023-01-08T05:03:46;47.80;;;25.70;;
68379;SDS011;57711;53.196;19.638;2023-01-08T05:06:14;46.60;;;25.70;;
68379;SDS011;57711;53.196;19.638;2023-01-08T05:08:41;46.30;;;24.80;;
68379;SDS011;57711;53.196;19.638;2023-01-08T05:11:08;40.80;;;24.30;;
68379;SDS011;57711;53.196;19.638;2023-01-08T05:13:35;51.40;;;25.90;;
68379;SDS011;57711;53.196;19.638;2023-01-08T05:16:03;41.10;;;23.60;;
68379;SDS011;57711;53.196;19.638;2023-01-08T05:18:30;47.10;;;24.40;;
68379;SDS011;57711;53.196;19.638;2023-01-08T05:21:01;44.50;;;25.90;;
68379;SDS011;57711;53.196;19.638;2023-01-08T05:23:30;47.30;;;26.50;;
68379;SDS011;57711;53.196;19.638;2023-01-08T05:25:59;47.20;;;24.60;;
68379;SDS011;57711;53.196;19.638;2023-01-08T05:28:27;36.20;;;19.30;;
68379;SDS011;57711;53.196;19.638;2023-01-08T05:30:55;43.00;;;22.70;;
68379;SDS011;57711;53.196;19.638;2023-01-08T05:33:23;46.90;;;24.70;;
68379;SDS011;57711;53.196;19.638;2023-01-08T05:35:51;32.00;;;18.10;;
68379;SDS011;57711;53.196;19.638;2023-01-08T05:38:18;38.30;;;22.20;;
68379;SDS011;57711;53.196;19.638;2023-01-08T05:40:45;68.30;;;37.30;;
68379;SDS011;57711;53.196;19.638;2023-01-08T05:43:12;248.90;;;57.50;;
68379;SDS011;57711;53.196;19.638;2023-01-08T05:45:40;337.40;;;96.00;;
68379;SDS011;57711;53.196;19.638;2023-01-08T05:48:07;123.30;;;39.00;;
68379;SDS011;57711;53.196;19.638;2023-01-08T05:50:34;53.00;;;25.20;;
68379;SDS011;57711;53.196;19.638;2023-01-08T05:53:04;40.40;;;22.00;;
68379;SDS011;57711;53.196;19.638;2023-01-08T05:55:33;42.70;;;24.70;;
68379;SDS011;57711;53.196;19.638;2023-01-08T05:58:01;50.10;;;25.80;;
68379;SDS011;57711;53.196;19.638;2023-01-08T06:00:32;35.70;;;20.40;;
68379;SDS011;57711;53.196;19.638;2023-01-08T06:03:00;42.00;;;22.40;;
68379;SDS011;57711;53.196;19.638;2023-01-08T06:05:28;30.00;;;17.90;;
68379;SDS011;57711;53.196;19.638;2023-01-08T06:07:57;43.30;;;22.30;;
68379;SDS011;57711;53.196;19.638;2023-01-08T06:10:25;37.10;;;22.10;;
68379;SDS011;57711;53.196;19.638;2023-01-08T06:12:53;43.90;;;23.50;;
68379;SDS011;57711;53.196;19.638;2023-01-08T06:15:20;38.90;;;21.90;;
68379;SDS011;57711;53.196;19.638;2023-01-08T06:17:47;42.40;;;21.70;;
68379;SDS011;57711;53.196;19.638;2023-01-08T06:20:15;32.90;;;17.80;;
68379;SDS011;57711;53.196;19.638;2023-01-08T06:22:42;33.60;;;19.20;;
68379;SDS011;57711;53.196;19.638;2023-01-08T06:25:09;45.30;;;22.70;;
68379;SDS011;57711;53.196;19.638;2023-01-08T06:27:36;41.80;;;22.50;;
68379;SDS011;57711;53.196;19.638;2023-01-08T06:30:06;44.30;;;23.60;;
68379;SDS011;57711;53.196;19.638;2023-01-08T06:32:35;30.10;;;17.90;;
68379;SDS011;57711;53.196;19.638;2023-01-08T06:35:02;40.80;;;22.60;;
68379;SDS011;57711;53.196;19.638;2023-01-08T06:37:30;43.60;;;22.20;;
68379;SDS011;57711;53.196;19.638;2023-01-08T06:39:57;34.80;;;22.10;;
68379;SDS011;57711;53.196;19.638;2023-01-08T06:42:24;44.30;;;23.70;;
68379;SDS011;57711;53.196;19.638;2023-01-08T06:44:51;38.20;;;21.80;;
68379;SDS011;57711;53.196;19.638;2023-01-08T06:47:18;51.50;;;26.30;;
68379;SDS011;57711;53.196;19.638;2023-01-08T06:49:46;44.80;;;27.70;;
68379;SDS011;57711;53.196;19.638;2023-01-08T06:52:13;52.20;;;31.10;;
68379;SDS011;57711;53.196;19.638;2023-01-08T06:54:40;42.80;;;26.00;;
68379;SDS011;57711;53.196;19.638;2023-01-08T06:57:07;45.90;;;25.10;;
68379;SDS011;57711;53.196;19.638;2023-01-08T06:59:34;47.80;;;25.70;;
68379;SDS011;57711;53.196;19.638;2023-01-08T07:02:02;39.80;;;22.00;;
68379;SDS011;57711;53.196;19.638;2023-01-08T07:04:29;46.00;;;23.30;;
68379;SDS011;57711;53.196;19.638;2023-01-08T07:06:56;51.30;;;27.20;;
68379;SDS011;57711;53.196;19.638;2023-01-08T07:09:23;44.30;;;25.10;;
68379;SDS011;57711;53.196;19.638;2023-01-08T07:11:51;57.50;;;33.60;;
68379;SDS011;57711;53.196;19.638;2023-01-08T07:14:18;40.70;;;21.00;;
68379;SDS011;57711;53.196;19.638;2023-01-08T07:16:46;33.40;;;19.90;;
68379;SDS011;57711;53.196;19.638;2023-01-08T07:19:13;39.60;;;23.50;;
68379;SDS011;57711;53.196;19.638;2023-01-08T07:21:40;28.40;;;16.70;;
68379;SDS011;57711;53.196;19.638;2023-01-08T07:24:07;65.40;;;35.60;;
68379;SDS011;57711;53.196;19.638;2023-01-08T07:26:35;42.80;;;25.30;;
68379;SDS011;57711;53.196;19.638;2023-01-08T07:29:02;42.20;;;24.90;;
68379;SDS011;57711;53.196;19.638;2023-01-08T07:31:29;54.20;;;27.80;;
68379;SDS011;57711;53.196;19.638;2023-01-08T07:33:57;58.00;;;31.50;;
68379;SDS011;57711;53.196;19.638;2023-01-08T07:36:24;59.30;;;34.50;;
68379;SDS011;57711;53.196;19.638;2023-01-08T07:38:51;107.70;;;51.40;;
68379;SDS011;57711;53.196;19.638;2023-01-08T07:41:18;106.60;;;50.00;;
68379;SDS011;57711;53.196;19.638;2023-01-08T07:43:46;110.70;;;49.60;;
68379;SDS011;57711;53.196;19.638;2023-01-08T07:46:14;162.10;;;74.40;;
68379;SDS011;57711;53.196;19.638;2023-01-08T07:48:42;91.30;;;47.10;;
68379;SDS011;57711;53.196;19.638;2023-01-08T07:51:09;79.20;;;40.80;;
68379;SDS011;57711;53.196;19.638;2023-01-08T07:53:36;66.60;;;39.40;;
68379;SDS011;57711;53.196;19.638;2023-01-08T07:56:05;66.70;;;39.40;;
68379;SDS011;57711;53.196;19.638;2023-01-08T07:58:34;50.40;;;28.90;;
68379;SDS011;57711;53.196;19.638;2023-01-08T08:01:01;60.30;;;28.60;;
68379;SDS011;57711;53.196;19.638;2023-01-08T08:03:29;38.50;;;22.00;;
68379;SDS011;57711;53.196;19.638;2023-01-08T08:05:58;51.50;;;23.60;;
68379;SDS011;57711;53.196;19.638;2023-01-08T08:08:26;46.90;;;26.40;;
68379;SDS011;57711;53.196;19.638;2023-01-08T08:10:53;38.20;;;21.90;;
68379;SDS011;57711;53.196;19.638;2023-01-08T08:13:21;47.20;;;24.40;;
68379;SDS011;57711;53.196;19.638;2023-01-08T08:15:48;43.70;;;24.20;;
68379;SDS011;57711;53.196;19.638;2023-01-08T08:18:15;97.20;;;37.20;;
68379;SDS011;57711;53.196;19.638;2023-01-08T08:20:42;38.20;;;18.30;;
68379;SDS011;57711;53.196;19.638;2023-01-08T08:23:11;41.00;;;22.70;;
68379;SDS011;57711;53.196;19.638;2023-01-08T08:25:40;40.20;;;21.20;;
68379;SDS011;57711;53.196;19.638;2023-01-08T08:28:09;36.70;;;20.00;;
68379;SDS011;57711;53.196;19.638;2023-01-08T08:30:38;44.80;;;23.70;;
68379;SDS011;57711;53.196;19.638;2023-01-08T08:33:08;45.50;;;25.20;;
68379;SDS011;57711;53.196;19.638;2023-01-08T08:35:36;65.80;;;36.20;;
68379;SDS011;57711;53.196;19.638;2023-01-08T08:38:04;58.60;;;32.00;;
68379;SDS011;57711;53.196;19.638;2023-01-08T08:40:31;45.10;;;24.30;;
68379;SDS011;57711;53.196;19.638;2023-01-08T08:43:00;45.00;;;24.10;;
68379;SDS011;57711;53.196;19.638;2023-01-08T08:45:28;35.80;;;21.50;;
68379;SDS011;57711;53.196;19.638;2023-01-08T08:47:56;50.60;;;24.40;;
68379;SDS011;57711;53.196;19.638;2023-01-08T08:50:23;40.00;;;23.00;;
68379;SDS011;57711;53.196;19.638;2023-01-08T08:52:51;51.20;;;29.20;;
68379;SDS011;57711;53.196;19.638;2023-01-08T08:55:18;51.80;;;26.60;;
68379;SDS011;57711;53.196;19.638;2023-01-08T08:57:46;38.80;;;20.20;;
68379;SDS011;57711;53.196;19.638;2023-01-08T09:00:14;41.20;;;20.50;;
68379;SDS011;57711;53.196;19.638;2023-01-08T09:02:42;43.20;;;20.50;;
68379;SDS011;57711;53.196;19.638;2023-01-08T09:05:10;47.80;;;28.60;;
68379;SDS011;57711;53.196;19.638;2023-01-08T09:07:37;43.20;;;24.00;;
68379;SDS011;57711;53.196;19.638;2023-01-08T09:10:05;39.30;;;20.40;;
68379;SDS011;57711;53.196;19.638;2023-01-08T09:12:33;69.20;;;30.70;;
68379;SDS011;57711;53.196;19.638;2023-01-08T09:15:00;60.60;;;29.50;;
68379;SDS011;57711;53.196;19.638;2023-01-08T09:17:27;52.80;;;26.50;;
68379;SDS011;57711;53.196;19.638;2023-01-08T09:19:54;48.40;;;26.50;;
68379;SDS011;57711;53.196;19.638;2023-01-08T09:22:21;68.00;;;39.40;;
68379;SDS011;57711;53.196;19.638;2023-01-08T09:24:48;120.00;;;60.10;;
68379;SDS011;57711;53.196;19.638;2023-01-08T09:27:16;120.70;;;47.90;;
68379;SDS011;57711;53.196;19.638;2023-01-08T09:29:43;158.30;;;58.30;;
68379;SDS011;57711;53.196;19.638;2023-01-08T09:32:10;142.60;;;55.90;;
68379;SDS011;57711;53.196;19.638;2023-01-08T09:34:37;104.80;;;44.80;;
68379;SDS011;57711;53.196;19.638;2023-01-08T09:37:05;120.20;;;50.00;;
68379;SDS011;57711;53.196;19.638;2023-01-08T09:39:32;87.50;;;36.70;;
68379;SDS011;57711;53.196;19.638;2023-01-08T09:42:00;60.60;;;29.30;;
68379;SDS011;57711;53.196;19.638;2023-01-08T09:44:37;87.40;;;44.30;;
68379;SDS011;57711;53.196;19.638;2023-01-08T09:50:05;74.60;;;38.10;;
68379;SDS011;57711;53.196;19.638;2023-01-08T09:52:37;53.00;;;28.50;;
68379;SDS011;57711;53.196;19.638;2023-01-08T09:55:11;34.70;;;18.90;;
68379;SDS011;57711;53.196;19.638;2023-01-08T10:00:18;88.00;;;47.00;;
68379;SDS011;57711;53.196;19.638;2023-01-08T10:02:50;58.70;;;34.40;;
68379;SDS011;57711;53.196;19.638;2023-01-08T10:05:20;68.80;;;33.00;;
68379;SDS011;57711;53.196;19.638;2023-01-08T10:07:47;79.50;;;35.30;;
68379;SDS011;57711;53.196;19.638;2023-01-08T10:10:19;50.70;;;27.30;;
68379;SDS011;57711;53.196;19.638;2023-01-08T10:12:49;58.00;;;28.90;;
68379;SDS011;57711;53.196;19.638;2023-01-08T10:15:18;64.30;;;34.70;;
68379;SDS011;57711;53.196;19.638;2023-01-08T10:18:06;55.50;;;26.60;;
68379;SDS011;57711;53.196;19.638;2023-01-08T10:20:38;56.60;;;31.60;;
68379;SDS011;57711;53.196;19.638;2023-01-08T10:23:13;63.40;;;32.70;;
68379;SDS011;57711;53.196;19.638;2023-01-08T10:25:49;56.10;;;32.00;;
68379;SDS011;57711;53.196;19.638;2023-01-08T10:28:21;58.60;;;33.90;;
68379;SDS011;57711;53.196;19.638;2023-01-08T10:30:50;83.00;;;39.50;;
68379;SDS011;57711;53.196;19.638;2023-01-08T10:35:58;88.40;;;45.30;;
68379;SDS011;57711;53.196;19.638;2023-01-08T10:41:04;85.30;;;44.20;;
68379;SDS011;57711;53.196;19.638;2023-01-08T10:43:41;92.80;;;45.80;;
68379;SDS011;57711;53.196;19.638;2023-01-08T10:46:26;71.00;;;36.20;;
68379;SDS011;57711;53.196;19.638;2023-01-08T10:48:57;62.40;;;33.40;;
68379;SDS011;57711;53.196;19.638;2023-01-08T10:51:28;39.20;;;22.90;;
68379;SDS011;57711;53.196;19.638;2023-01-08T10:53:59;42.90;;;27.00;;
68379;SDS011;57711;53.196;19.638;2023-01-08T10:56:42;40.20;;;24.20;;
68379;SDS011;57711;53.196;19.638;2023-01-08T10:59:20;43.70;;;22.50;;
68379;SDS011;57711;53.196;19.638;2023-01-08T11:01:49;44.70;;;24.50;;
68379;SDS011;57711;53.196;19.638;2023-01-08T11:07:02;34.10;;;20.50;;
68379;SDS011;57711;53.196;19.638;2023-01-08T11:09:40;39.30;;;22.60;;
68379;SDS011;57711;53.196;19.638;2023-01-08T11:12:22;51.00;;;24.40;;
68379;SDS011;57711;53.196;19.638;2023-01-08T11:14:58;44.20;;;23.50;;
68379;SDS011;57711;53.196;19.638;2023-01-08T11:17:26;39.30;;;19.90;;
68379;SDS011;57711;53.196;19.638;2023-01-08T11:19:54;39.50;;;21.30;;
68379;SDS011;57711;53.196;19.638;2023-01-08T11:22:35;54.70;;;27.40;;
68379;SDS011;57711;53.196;19.638;2023-01-08T11:25:02;42.80;;;22.00;;
68379;SDS011;57711;53.196;19.638;2023-01-08T11:27:34;51.90;;;25.90;;
68379;SDS011;57711;53.196;19.638;2023-01-08T11:32:53;71.20;;;39.90;;
68379;SDS011;57711;53.196;19.638;2023-01-08T11:35:30;71.50;;;37.20;;
68379;SDS011;57711;53.196;19.638;2023-01-08T11:38:02;95.90;;;48.50;;
68379;SDS011;57711;53.196;19.638;2023-01-08T11:40:37;103.40;;;53.80;;
68379;SDS011;57711;53.196;19.638;2023-01-08T11:45:52;73.70;;;38.10;;
68379;SDS011;57711;53.196;19.638;2023-01-08T12:05:21;69.30;;;37.00;;
68379;SDS011;57711;53.196;19.638;2023-01-08T12:07:59;64.30;;;33.40;;
68379;SDS011;57711;53.196;19.638;2023-01-08T12:10:32;60.40;;;32.40;;
68379;SDS011;57711;53.196;19.638;2023-01-08T12:22:03;38.50;;;23.20;;
68379;SDS011;57711;53.196;19.638;2023-01-08T12:24:51;69.30;;;34.90;;
68379;SDS011;57711;53.196;19.638;2023-01-08T12:30:25;51.40;;;30.30;;
68379;SDS011;57711;53.196;19.638;2023-01-08T12:33:08;60.40;;;31.70;;
68379;SDS011;57711;53.196;19.638;2023-01-08T12:35:43;60.80;;;30.60;;
68379;SDS011;57711;53.196;19.638;2023-01-08T12:38:19;62.10;;;33.20;;
68379;SDS011;57711;53.196;19.638;2023-01-08T12:40:51;53.00;;;30.20;;
68379;SDS011;57711;53.196;19.638;2023-01-08T12:43:43;40.70;;;21.50;;
68379;SDS011;57711;53.196;19.638;2023-01-08T12:46:11;36.50;;;22.20;;
68379;SDS011;57711;53.196;19.638;2023-01-08T12:48:43;33.90;;;20.70;;
68379;SDS011;57711;53.196;19.638;2023-01-08T12:51:14;43.40;;;26.10;;
68379;SDS011;57711;53.196;19.638;2023-01-08T12:53:55;53.90;;;26.80;;
68379;SDS011;57711;53.196;19.638;2023-01-08T12:59:23;66.60;;;30.50;;
68379;SDS011;57711;53.196;19.638;2023-01-08T13:07:45;153.10;;;63.40;;
68379;SDS011;57711;53.196;19.638;2023-01-08T13:10:32;356.60;;;159.80;;
68379;SDS011;57711;53.196;19.638;2023-01-08T13:13:05;273.70;;;114.10;;
68379;SDS011;57711;53.196;19.638;2023-01-08T13:15:49;221.20;;;93.70;;
68379;SDS011;57711;53.196;19.638;2023-01-08T13:18:17;157.20;;;62.80;;
68379;SDS011;57711;53.196;19.638;2023-01-08T13:20:54;197.50;;;90.30;;
68379;SDS011;57711;53.196;19.638;2023-01-08T13:23:23;90.00;;;44.10;;
68379;SDS011;57711;53.196;19.638;2023-01-08T13:25:53;62.10;;;29.10;;
68379;SDS011;57711;53.196;19.638;2023-01-08T13:30:50;110.90;;;58.50;;
68379;SDS011;57711;53.196;19.638;2023-01-08T13:33:25;56.70;;;31.20;;
68379;SDS011;57711;53.196;19.638;2023-01-08T13:36:53;71.30;;;36.30;;
68379;SDS011;57711;53.196;19.638;2023-01-08T13:39:02;54.90;;;28.40;;
68379;SDS011;57711;53.196;19.638;2023-01-08T13:41:36;50.20;;;26.00;;
68379;SDS011;57711;53.196;19.638;2023-01-08T13:44:21;50.00;;;27.60;;
68379;SDS011;57711;53.196;19.638;2023-01-08T13:46:54;66.40;;;35.70;;
68379;SDS011;57711;53.196;19.638;2023-01-08T13:52:24;67.70;;;29.50;;
68379;SDS011;57711;53.196;19.638;2023-01-08T13:55:15;50.00;;;24.70;;
68379;SDS011;57711;53.196;19.638;2023-01-08T13:57:48;47.60;;;27.10;;
68379;SDS011;57711;53.196;19.638;2023-01-08T14:00:24;59.80;;;28.80;;
68379;SDS011;57711;53.196;19.638;2023-01-08T14:02:55;89.00;;;38.30;;
68379;SDS011;57711;53.196;19.638;2023-01-08T14:05:24;110.10;;;43.10;;
68379;SDS011;57711;53.196;19.638;2023-01-08T14:07:54;83.80;;;37.10;;
68379;SDS011;57711;53.196;19.638;2023-01-08T14:10:22;58.50;;;26.40;;
68379;SDS011;57711;53.196;19.638;2023-01-08T14:12:50;62.20;;;27.70;;
68379;SDS011;57711;53.196;19.638;2023-01-08T14:17:54;71.00;;;35.80;;
68379;SDS011;57711;53.196;19.638;2023-01-08T14:20:29;51.30;;;23.00;;
68379;SDS011;57711;53.196;19.638;2023-01-08T14:22:58;79.10;;;32.10;;
68379;SDS011;57711;53.196;19.638;2023-01-08T14:25:26;55.90;;;27.80;;
68379;SDS011;57711;53.196;19.638;2023-01-08T14:27:55;59.50;;;23.40;;
68379;SDS011;57711;53.196;19.638;2023-01-08T14:30:25;49.30;;;21.50;;
68379;SDS011;57711;53.196;19.638;2023-01-08T14:32:54;38.00;;;20.10;;
68379;SDS011;57711;53.196;19.638;2023-01-08T14:35:25;40.20;;;18.60;;
68379;SDS011;57711;53.196;19.638;2023-01-08T14:37:57;51.70;;;24.00;;
68379;SDS011;57711;53.196;19.638;2023-01-08T14:40:30;47.80;;;24.30;;
68379;SDS011;57711;53.196;19.638;2023-01-08T14:43:08;36.40;;;20.80;;
68379;SDS011;57711;53.196;19.638;2023-01-08T14:45:38;36.30;;;20.30;;
68379;SDS011;57711;53.196;19.638;2023-01-08T14:50:57;41.40;;;20.90;;
68379;SDS011;57711;53.196;19.638;2023-01-08T14:56:00;62.00;;;30.50;;
68379;SDS011;57711;53.196;19.638;2023-01-08T14:58:33;56.40;;;30.00;;
68379;SDS011;57711;53.196;19.638;2023-01-08T15:01:05;41.30;;;22.70;;
68379;SDS011;57711;53.196;19.638;2023-01-08T15:03:41;59.50;;;30.00;;
68379;SDS011;57711;53.196;19.638;2023-01-08T15:06:10;38.10;;;19.20;;
68379;SDS011;57711;53.196;19.638;2023-01-08T15:08:38;51.50;;;28.20;;
68379;SDS011;57711;53.196;19.638;2023-01-08T15:11:19;44.10;;;24.30;;
68379;SDS011;57711;53.196;19.638;2023-01-08T15:13:47;39.80;;;21.10;;
68379;SDS011;57711;53.196;19.638;2023-01-08T15:16:17;40.50;;;21.90;;
68379;SDS011;57711;53.196;19.638;2023-01-08T15:18:50;39.80;;;21.10;;
68379;SDS011;57711;53.196;19.638;2023-01-08T15:21:26;50.10;;;22.60;;
68379;SDS011;57711;53.196;19.638;2023-01-08T15:23:54;50.00;;;26.40;;
68379;SDS011;57711;53.196;19.638;2023-01-08T15:26:23;48.40;;;25.60;;
68379;SDS011;57711;53.196;19.638;2023-01-08T15:28:52;47.80;;;23.60;;
68379;SDS011;57711;53.196;19.638;2023-01-08T15:33:59;37.20;;;21.00;;
68379;SDS011;57711;53.196;19.638;2023-01-08T15:36:26;46.30;;;21.90;;
68379;SDS011;57711;53.196;19.638;2023-01-08T15:38:53;37.90;;;20.90;;
68379;SDS011;57711;53.196;19.638;2023-01-08T15:41:21;33.90;;;18.80;;
68379;SDS011;57711;53.196;19.638;2023-01-08T15:44:08;42.60;;;25.00;;
68379;SDS011;57711;53.196;19.638;2023-01-08T15:46:38;46.80;;;24.50;;
68379;SDS011;57711;53.196;19.638;2023-01-08T15:49:05;32.60;;;17.80;;
68379;SDS011;57711;53.196;19.638;2023-01-08T15:51:33;43.60;;;23.00;;